EDT,Max TemperatureF,Mean TemperatureF,Min TemperatureF,Max Dew PointF,MeanDew PointF,Min DewpointF,Max Humidity, Mean Humidity, Min Humidity, Max Sea Level PressureIn, Mean Sea Level PressureIn, Min Sea Level PressureIn, Max VisibilityMiles, Mean VisibilityMiles, Min VisibilityMiles, Max Wind SpeedMPH, Mean Wind SpeedMPH, Max Gust SpeedMPH,PrecipitationIn, CloudCover, Events, WindDirDegrees
2013-6-1,91,80,69,70,68,66,100,72,46,30.08,30.02,29.96,10,10,7,13,5,20,0.00,4,Thunderstorm,89
2013-6-2,89,79,69,72,70,68,100,76,52,30.03,29.97,29.90,10,10,5,13,3,18,0.00,3,Thunderstorm,232
2013-6-3,87,79,71,73,71,68,100,77,52,30.01,29.94,29.91,10,10,2,14,2,18,0.50,4,Rain-Thunderstorm,221
2013-6-4,82,76,69,75,72,68,100,91,70,30.04,30.00,29.95,10,9,1,8,2,23,1.00,6,Rain-Thunderstorm,204
2013-6-5,87,78,69,73,70,64,100,83,48,30.03,29.97,29.91,10,10,3,12,1,21,0.18,6,Rain,127
2013-6-6,80,76,71,73,71,70,100,91,74,29.91,29.73,29.59,10,8,2,17,8,33,2.22,7,Rain,144
2013-6-7,84,76,69,72,71,68,100,80,62,29.96,29.87,29.76,10,10,7,14,8,29,0.01,4,Rain,246
2013-6-8,87,79,71,73,71,68,100,80,55,30.09,30.03,29.97,10,10,10,12,2,17,0.00,2,Thunderstorm,209
2013-6-9,91,81,71,73,70,68,100,80,49,30.11,30.08,30.02,10,10,3,12,2,20,0.14,3,Rain-Thunderstorm,122
2013-6-10,87,79,71,73,72,70,100,80,55,30.11,30.07,30.04,10,10,7,10,2,18,0.00,2,Thunderstorm,250
2013-6-11,89,80,71,73,71,66,100,76,49,30.09,30.06,30.04,10,9,7,12,2,17,0.00,0,Thunderstorm,277
2013-6-12,89,80,71,73,71,66,100,75,49,30.10,30.06,30.02,10,10,7,12,3,16,0.00,1,Thunderstorm,281
2013-6-13,87,78,69,73,71,68,100,77,55,30.04,29.99,29.92,10,10,7,13,3,18,0.00,2,,262
2013-6-14,86,80,73,77,73,70,94,79,58,29.96,29.91,29.88,10,10,10,13,5,18,0.00,5,Rain,251
2013-6-15,86,80,73,77,74,70,100,86,66,30.08,30.00,29.91,10,9,1,12,4,21,2.48,6,Rain-Thunderstorm,100
2013-6-16,87,80,73,77,72,70,100,80,55,30.10,30.07,30.02,10,10,5,9,3,,0.05,6,Rain-Thunderstorm,87
2013-6-17,89,80,71,77,72,70,100,78,52,30.08,30.04,30.00,10,9,2,12,2,17,0.00,2,,269
2013-6-18,87,79,71,73,71,70,100,77,55,30.07,30.03,29.98,10,9,5,14,2,20,0.03,2,,249
2013-6-19,89,80,71,73,71,68,100,76,55,30.05,30.02,29.98,10,10,7,13,3,16,0.00,1,Thunderstorm,261
2013-6-20,89,80,71,73,70,68,100,73,49,30.10,30.06,30.01,10,10,7,12,2,17,0.00,1,Thunderstorm,273
2013-6-21,87,78,68,73,69,66,100,80,52,30.12,30.09,30.06,10,9,2,12,1,,0.14,2,Rain-Thunderstorm,76
2013-6-22,86,78,71,73,71,68,100,82,58,30.13,30.10,30.07,10,8,2,24,2,30,0.17,3,Rain-Thunderstorm,86
2013-6-23,91,81,71,72,70,64,100,73,41,30.16,30.11,30.07,10,10,10,8,1,,0.00,2,Thunderstorm,109
2013-6-24,93,82,71,75,71,66,100,77,41,30.20,30.14,30.06,10,10,2,9,2,20,0.31,3,Rain-Thunderstorm,84
2013-6-25,91,81,71,75,71,63,100,77,38,30.17,30.11,30.04,10,10,7,8,1,,0.05,2,Rain-Thunderstorm,9
2013-6-26,91,80,69,75,71,68,100,80,49,30.11,30.05,30.01,10,10,1,12,1,17,0.82,2,Rain-Thunderstorm,243
2013-6-27,87,78,69,77,72,68,100,82,58,30.06,30.01,29.95,10,10,7,9,2,,0.20,1,Rain-Thunderstorm,249
2013-6-28,87,80,73,77,73,70,100,79,58,29.97,29.91,29.85,10,10,7,17,3,23,0.03,3,Rain-Thunderstorm,259
2013-6-29,82,78,73,73,72,68,94,83,66,29.89,29.84,29.79,10,10,4,20,2,24,0.50,3,Rain-Thunderstorm,241
2013-6-30,84,78,73,77,73,72,100,86,70,29.88,29.83,29.80,10,10,2,8,2,18,0.19,3,Rain-Thunderstorm,155